Hordafor III — LLVC — position and weather

sailwx.info

Track history (hours):
 
Tides and Currents Weather Stations Pressure Air Temp Water Temp Dewpoint Dewpoint Depression Visibility Wind Speed Wind Dir Waves Ship Positions

Hordafor III

Last reported at 2016-Dec-03 04:33 UTC. Time now 2016-Dec-08 11:51 UTC.
Position N 69°46' E 019°08'.

Length 50 m; draft 6 m.

Type: Cargo ship. MMSI: 258044000.

Date/timePositionNaut miles runAvg speedWind from/ knotsBaromVisibWave heightAir tempDewpointWater temp
2016-Dec-03 04:33N 69°46' E 019°08'5 5.2
2016-Dec-03 03:33N 69°41' E 019°02'3 2.5
2016-Dec-03 02:32N 69°39' E 018°58'0 0.0
2016-Dec-03 01:32N 69°39' E 018°58'0 0.0
2016-Dec-03 00:33N 69°39' E 018°58'0 0.0
2016-Dec-02 22:32N 69°39' E 018°58'2311.8
2016-Dec-02 20:33N 69°37' E 017°51'6 6.0
2016-Dec-02 19:32N 69°42' E 018°02'3 2.9
2016-Dec-02 18:33N 69°42' E 018°10'1 1.4
2016-Dec-02 17:32N 69°42' E 018°07'18 8.9
2016-Dec-02 15:32N 69°37' E 018°55'6 6.2
2016-Dec-02 14:33N 69°33' E 018°42'7 7.1
2016-Dec-02 13:33N 69°31' E 018°23'7 6.8
2016-Dec-02 12:33N 69°27' E 018°07'7 7.2
2016-Dec-02 11:33N 69°20' E 018°02'4 4.0
2016-Dec-02 10:32N 69°16' E 017°58'8 8.5
2016-Dec-02 09:33N 69°09' E 017°48'2510.8
2016-Dec-02 07:16N 68°52' E 016°58'811.2
2016-Dec-02 06:33N 68°45' E 016°46'4443.6
2016-Dec-02 05:33N 68°13' E 015°24'7 7.4
2016-Dec-02 04:33N 68°13' E 015°04'13 2.4
2016-Dec-01 23:06N 68°14' E 015°39'4 7.3
2016-Dec-01 22:33N 68°12' E 015°31'8 7.7
2016-Dec-01 21:33N 68°07' E 015°16'8 7.9
2016-Dec-01 20:33N 68°01' E 015°00'8 8.3
2016-Dec-01 19:33N 67°55' E 014°45'30 7.5
2016-Dec-01 15:33N 67°26' E 014°27'34 7.6
2016-Dec-01 11:04N 66°59' E 013°34'11 7.5
2016-Dec-01 09:32N 66°50' E 013°16'170173.2
2016-Dec-01 08:34N 69°08' E 017°39'8 8.5
2016-Dec-01 07:34N 69°13' E 017°58'198198.2
2016-Dec-01 06:33N 66°30' E 012°59'7 6.8
2016-Dec-01 05:32N 66°23' E 012°58'7 6.9
2016-Dec-01 04:33N 66°16' E 012°55'7 6.8
2016-Dec-01 03:33N 66°10' E 012°50'7 6.8
2016-Dec-01 02:33N 66°04' E 012°39'7 6.6
2016-Dec-01 01:33N 65°59' E 012°29'7 6.8
2016-Dec-01 00:32N 65°53' E 012°22'7 7.2
2016-Nov-30 23:33N 65°46' E 012°19'6 6.3
2016-Nov-30 22:33N 65°40' E 012°15'6 6.4
2016-Nov-30 21:32N 65°33' E 012°13'5 5.5
2016-Nov-30 20:33N 65°28' E 012°11'7 6.8
2016-Nov-30 19:32N 65°22' E 012°04'7 7.3
2016-Nov-30 18:32N 65°15' E 011°56'7 7.0
2016-Nov-30 17:33N 65°09' E 011°50'7 6.7
2016-Nov-30 16:33N 65°03' E 011°44'7 7.2
2016-Nov-30 15:32N 64°58' E 011°32'8 7.7
2016-Nov-30 14:33N 64°53' E 011°18'8 7.3
2016-Nov-30 13:32N 64°47' E 011°05'14 7.3
2016-Nov-30 11:33N 64°38' E 010°40'7 7.3
2016-Nov-30 10:33N 64°31' E 010°31'7 7.4
2016-Nov-30 09:33N 64°24' E 010°26'7 6.7
2016-Nov-30 08:33N 64°18' E 010°22'7 7.3
2016-Nov-30 07:33N 64°12' E 010°11'8 8.0
2016-Nov-30 06:33N 64°06' E 009°59'7 7.4
2016-Nov-30 05:33N 64°01' E 009°47'8 7.8
2016-Nov-30 04:33N 63°53' E 009°45'8 7.6
2016-Nov-30 03:33N 63°47' E 009°34'4 3.8
2016-Nov-30 02:32N 63°44' E 009°35'0 0.0
2016-Nov-30 01:33N 63°44' E 009°35'0 0.0
2016-Nov-30 00:33N 63°44' E 009°35'0 0.0
2016-Nov-29 23:32N 63°44' E 009°35'0 0.0
2016-Nov-29 22:32N 63°44' E 009°35'0 0.0
2016-Nov-29 21:33N 63°44' E 009°35'0 0.0
2016-Nov-29 20:33N 63°44' E 009°35'0 0.0
2016-Nov-29 19:33N 63°44' E 009°35'0 0.0
2016-Nov-29 18:33N 63°44' E 009°35'0 0.0
2016-Nov-29 17:33N 63°44' E 009°35'5 5.2
2016-Nov-29 16:32N 63°49' E 009°35'7 6.8
2016-Nov-29 15:33N 63°54' E 009°46'8 7.6
2016-Nov-29 14:33N 63°60' E 009°57'366371.7
2016-Nov-29 13:33N 69°12' E 018°01'1110.6
2016-Nov-29 12:33N 69°07' E 017°35'336334.4
2016-Nov-29 11:33N 64°18' E 010°21'6 6.3
2016-Nov-29 10:34N 64°24' E 010°26'7 6.9
2016-Nov-29 09:33N 64°30' E 010°33'7 7.5
2016-Nov-29 08:33N 64°36' E 010°42'7 7.2
2016-Nov-29 07:33N 64°42' E 010°52'7 7.3
2016-Nov-29 06:33N 64°47' E 011°05'7 6.9
2016-Nov-29 05:33N 64°52' E 011°17'7 6.9
2016-Nov-29 04:33N 64°57' E 011°28'7 6.7
2016-Nov-29 03:33N 65°01' E 011°41'6 6.4
2016-Nov-29 02:33N 65°06' E 011°48'7 7.0
2016-Nov-29 01:33N 65°13' E 011°54'145144.7
2016-Nov-29 00:33N 67°24' E 014°26'1110.8
2016-Nov-28 23:33N 67°15' E 014°12'1111.1
2016-Nov-28 22:33N 67°06' E 013°57'1111.1
2016-Nov-28 21:33N 66°59' E 013°34'6521.7
2016-Nov-28 18:33N 65°57' E 012°43'5 5.1
2016-Nov-28 17:33N 65°58' E 012°55'6 6.2
2016-Nov-28 16:33N 65°54' E 013°07'46 7.7
2016-Nov-28 10:32N 65°18' E 011°59'1010.3
2016-Nov-28 09:33N 65°08' E 011°50'1010.4
2016-Nov-28 08:33N 64°60' E 011°37'1111.1
2016-Nov-28 07:33N 64°52' E 011°17'1110.7
2016-Nov-28 06:33N 64°45' E 010°59'5410.2
2016-Nov-28 01:12N 63°60' E 009°47'710.4
2016-Nov-28 00:29N 63°53' E 009°43'910.0
2016-Nov-27 23:33N 63°45' E 009°34'1 1.1
2016-Nov-27 22:33N 63°44' E 009°35'0 0.0
2016-Nov-27 21:33N 63°44' E 009°35'0 0.0
2016-Nov-27 20:33N 63°44' E 009°35'0 0.0
2016-Nov-27 19:33N 63°44' E 009°35'0 0.0
2016-Nov-27 18:33N 63°44' E 009°35'0 0.0
2016-Nov-27 17:33N 63°44' E 009°35'1 0.7
2016-Nov-27 16:33N 63°44' E 009°34'10 9.5
2016-Nov-27 15:33N 63°53' E 009°44'6210.3
2016-Nov-27 09:31N 64°45' E 011°01'1010.0
2016-Nov-27 08:33N 64°52' E 011°17'10 9.9
2016-Nov-27 07:33N 64°58' E 011°34'9 9.5
2016-Nov-27 06:33N 65°06' E 011°48'10 9.7
2016-Nov-27 05:33N 65°15' E 011°56'5251.9
2016-Nov-27 04:33N 66°01' E 012°56'6 6.3
2016-Nov-27 03:32N 66°02' E 012°41'6 6.2
2016-Nov-27 02:33N 66°07' E 012°46'32 8.1
2016-Nov-26 22:32N 66°39' E 013°07'7 7.4
2016-Nov-26 21:32N 66°46' E 013°13'7 7.1
2016-Nov-26 20:33N 66°52' E 013°21'7 6.6
2016-Nov-26 19:33N 66°58' E 013°30'7 7.0
2016-Nov-26 18:34N 67°01' E 013°45'20 6.7
2016-Nov-26 15:33N 67°18' E 014°16'5 3.9
2016-Nov-26 14:19N 67°22' E 014°23'5 6.5
2016-Nov-26 13:33N 67°26' E 014°27'6 6.2
2016-Nov-26 12:32N 67°32' E 014°30'8 6.3
2016-Nov-26 11:17N 67°40' E 014°31'4 6.0
2016-Nov-26 10:33N 67°45' E 014°31'7 5.7
2016-Nov-26 09:15N 67°51' E 014°41'13 7.7
2016-Nov-26 07:32N 68°04' E 014°48'6 6.6
2016-Nov-26 06:33N 68°11' E 014°50'3 3.3
2016-Nov-26 05:33N 68°14' E 014°51'0 0.1
2016-Nov-26 04:33N 68°14' E 014°51'0 0.0
2016-Nov-26 03:33N 68°14' E 014°51'0 0.2
2016-Nov-26 02:33N 68°14' E 014°51'7 5.1
2016-Nov-26 01:10N 68°13' E 015°10'3 5.5
2016-Nov-26 00:33N 68°13' E 015°19'6 5.6
2016-Nov-25 23:33N 68°14' E 015°34'6 6.2
2016-Nov-25 22:33N 68°15' E 015°50'6 5.6
2016-Nov-25 21:32N 68°15' E 016°05'7 6.7
2016-Nov-25 20:33N 68°09' E 016°10'11 9.8
2016-Nov-25 19:24N 67°58' E 016°14'4 4.9
2016-Nov-25 18:33N 67°54' E 016°14'1 0.7
2016-Nov-25 17:33N 67°54' E 016°13'8 6.0
2016-Nov-25 16:12N 68°02' E 016°12'7645.0
2016-Nov-25 14:30N 67°06' E 013°57'9 9.9
2016-Nov-25 13:33N 67°14' E 014°09'1010.1
2016-Nov-25 12:33N 67°22' E 014°24'20 9.4
2016-Nov-25 10:23N 67°42' E 014°31'12 0.5
2016-Nov-24 12:24N 67°31' E 014°29'910.9
2016-Nov-24 11:33N 67°22' E 014°24'1111.0
2016-Nov-24 10:33N 67°13' E 014°08'6 5.6
2016-Nov-24 09:33N 67°08' E 013°59'0 0.3
2016-Nov-24 08:33N 67°08' E 013°58'4 3.6
2016-Nov-24 07:29N 67°04' E 013°57'2 1.8
2016-Nov-24 06:33N 67°04' E 013°53'8 8.2
2016-Nov-24 05:33N 66°59' E 013°35'30 7.4
2016-Nov-24 01:32N 66°33' E 013°00'7 7.1
2016-Nov-24 00:33N 66°27' E 012°49'9 8.7
2016-Nov-23 23:33N 66°24' E 012°29'3 3.3
2016-Nov-23 22:33N 66°22' E 012°23'0 0.0
2016-Nov-23 21:33N 66°22' E 012°23'0 0.0
2016-Nov-23 20:33N 66°22' E 012°23'0 0.0
2016-Nov-23 19:33N 66°22' E 012°23'0 0.0
2016-Nov-23 18:33N 66°22' E 012°23'0 0.0
2016-Nov-23 17:33N 66°22' E 012°23'0 0.0
2016-Nov-23 16:33N 66°22' E 012°23'0 0.1
2016-Nov-23 15:33N 66°22' E 012°23'  
Track history (hours):
 
Tides and Currents Weather Stations Pressure Air Temp Water Temp Dewpoint Dewpoint Depression Visibility Wind Speed Wind Dir Waves Ship Positions

Hordafor III

Last reported at 2016-Dec-03 04:33 UTC. Time now 2016-Dec-08 11:51 UTC.
Position N 69°46' E 019°08'.

Length 50 m; draft 6 m.

Type: Cargo ship. MMSI: 258044000.

Date/timePositionNaut miles runAvg speedWind from/ knotsBaromVisibWave heightAir tempDewpointWater temp
2016-Dec-03 04:33N 69°46' E 019°08'5 5.2
2016-Dec-03 03:33N 69°41' E 019°02'3 2.5
2016-Dec-03 02:32N 69°39' E 018°58'0 0.0
2016-Dec-03 01:32N 69°39' E 018°58'0 0.0
2016-Dec-03 00:33N 69°39' E 018°58'0 0.0
2016-Dec-02 22:32N 69°39' E 018°58'2311.8
2016-Dec-02 20:33N 69°37' E 017°51'6 6.0
2016-Dec-02 19:32N 69°42' E 018°02'3 2.9
2016-Dec-02 18:33N 69°42' E 018°10'1 1.4
2016-Dec-02 17:32N 69°42' E 018°07'18 8.9
2016-Dec-02 15:32N 69°37' E 018°55'6 6.2
2016-Dec-02 14:33N 69°33' E 018°42'7 7.1
2016-Dec-02 13:33N 69°31' E 018°23'7 6.8
2016-Dec-02 12:33N 69°27' E 018°07'7 7.2
2016-Dec-02 11:33N 69°20' E 018°02'4 4.0
2016-Dec-02 10:32N 69°16' E 017°58'8 8.5
2016-Dec-02 09:33N 69°09' E 017°48'2510.8
2016-Dec-02 07:16N 68°52' E 016°58'811.2
2016-Dec-02 06:33N 68°45' E 016°46'4443.6
2016-Dec-02 05:33N 68°13' E 015°24'7 7.4
2016-Dec-02 04:33N 68°13' E 015°04'13 2.4
2016-Dec-01 23:06N 68°14' E 015°39'4 7.3
2016-Dec-01 22:33N 68°12' E 015°31'8 7.7
2016-Dec-01 21:33N 68°07' E 015°16'8 7.9
2016-Dec-01 20:33N 68°01' E 015°00'8 8.3
2016-Dec-01 19:33N 67°55' E 014°45'30 7.5
2016-Dec-01 15:33N 67°26' E 014°27'34 7.6
2016-Dec-01 11:04N 66°59' E 013°34'11 7.5
2016-Dec-01 09:32N 66°50' E 013°16'170173.2
2016-Dec-01 08:34N 69°08' E 017°39'8 8.5
2016-Dec-01 07:34N 69°13' E 017°58'198198.2
2016-Dec-01 06:33N 66°30' E 012°59'7 6.8
2016-Dec-01 05:32N 66°23' E 012°58'7 6.9
2016-Dec-01 04:33N 66°16' E 012°55'7 6.8
2016-Dec-01 03:33N 66°10' E 012°50'7 6.8
2016-Dec-01 02:33N 66°04' E 012°39'7 6.6
2016-Dec-01 01:33N 65°59' E 012°29'7 6.8
2016-Dec-01 00:32N 65°53' E 012°22'7 7.2
2016-Nov-30 23:33N 65°46' E 012°19'6 6.3
2016-Nov-30 22:33N 65°40' E 012°15'6 6.4
2016-Nov-30 21:32N 65°33' E 012°13'5 5.5
2016-Nov-30 20:33N 65°28' E 012°11'7 6.8
2016-Nov-30 19:32N 65°22' E 012°04'7 7.3
2016-Nov-30 18:32N 65°15' E 011°56'7 7.0
2016-Nov-30 17:33N 65°09' E 011°50'7 6.7
2016-Nov-30 16:33N 65°03' E 011°44'7 7.2
2016-Nov-30 15:32N 64°58' E 011°32'8 7.7
2016-Nov-30 14:33N 64°53' E 011°18'8 7.3
2016-Nov-30 13:32N 64°47' E 011°05'14 7.3
2016-Nov-30 11:33N 64°38' E 010°40'7 7.3
2016-Nov-30 10:33N 64°31' E 010°31'7 7.4
2016-Nov-30 09:33N 64°24' E 010°26'7 6.7
2016-Nov-30 08:33N 64°18' E 010°22'7 7.3
2016-Nov-30 07:33N 64°12' E 010°11'8 8.0
2016-Nov-30 06:33N 64°06' E 009°59'7 7.4
2016-Nov-30 05:33N 64°01' E 009°47'8 7.8
2016-Nov-30 04:33N 63°53' E 009°45'8 7.6
2016-Nov-30 03:33N 63°47' E 009°34'4 3.8
2016-Nov-30 02:32N 63°44' E 009°35'0 0.0
2016-Nov-30 01:33N 63°44' E 009°35'0 0.0
2016-Nov-30 00:33N 63°44' E 009°35'0 0.0
2016-Nov-29 23:32N 63°44' E 009°35'0 0.0
2016-Nov-29 22:32N 63°44' E 009°35'0 0.0
2016-Nov-29 21:33N 63°44' E 009°35'0 0.0
2016-Nov-29 20:33N 63°44' E 009°35'0 0.0
2016-Nov-29 19:33N 63°44' E 009°35'0 0.0
2016-Nov-29 18:33N 63°44' E 009°35'0 0.0
2016-Nov-29 17:33N 63°44' E 009°35'5 5.2
2016-Nov-29 16:32N 63°49' E 009°35'7 6.8
2016-Nov-29 15:33N 63°54' E 009°46'8 7.6
2016-Nov-29 14:33N 63°60' E 009°57'366371.7
2016-Nov-29 13:33N 69°12' E 018°01'1110.6
2016-Nov-29 12:33N 69°07' E 017°35'336334.4
2016-Nov-29 11:33N 64°18' E 010°21'6 6.3
2016-Nov-29 10:34N 64°24' E 010°26'7 6.9
2016-Nov-29 09:33N 64°30' E 010°33'7 7.5
2016-Nov-29 08:33N 64°36' E 010°42'7 7.2
2016-Nov-29 07:33N 64°42' E 010°52'7 7.3
2016-Nov-29 06:33N 64°47' E 011°05'7 6.9
2016-Nov-29 05:33N 64°52' E 011°17'7 6.9
2016-Nov-29 04:33N 64°57' E 011°28'7 6.7
2016-Nov-29 03:33N 65°01' E 011°41'6 6.4
2016-Nov-29 02:33N 65°06' E 011°48'7 7.0
2016-Nov-29 01:33N 65°13' E 011°54'145144.7
2016-Nov-29 00:33N 67°24' E 014°26'1110.8
2016-Nov-28 23:33N 67°15' E 014°12'1111.1
2016-Nov-28 22:33N 67°06' E 013°57'1111.1
2016-Nov-28 21:33N 66°59' E 013°34'6521.7
2016-Nov-28 18:33N 65°57' E 012°43'5 5.1
2016-Nov-28 17:33N 65°58' E 012°55'6 6.2
2016-Nov-28 16:33N 65°54' E 013°07'46 7.7
2016-Nov-28 10:32N 65°18' E 011°59'1010.3
2016-Nov-28 09:33N 65°08' E 011°50'1010.4
2016-Nov-28 08:33N 64°60' E 011°37'1111.1
2016-Nov-28 07:33N 64°52' E 011°17'1110.7
2016-Nov-28 06:33N 64°45' E 010°59'5410.2
2016-Nov-28 01:12N 63°60' E 009°47'710.4
2016-Nov-28 00:29N 63°53' E 009°43'910.0
2016-Nov-27 23:33N 63°45' E 009°34'1 1.1
2016-Nov-27 22:33N 63°44' E 009°35'0 0.0
2016-Nov-27 21:33N 63°44' E 009°35'0 0.0
2016-Nov-27 20:33N 63°44' E 009°35'0 0.0
2016-Nov-27 19:33N 63°44' E 009°35'0 0.0
2016-Nov-27 18:33N 63°44' E 009°35'0 0.0
2016-Nov-27 17:33N 63°44' E 009°35'1 0.7
2016-Nov-27 16:33N 63°44' E 009°34'10 9.5
2016-Nov-27 15:33N 63°53' E 009°44'6210.3
2016-Nov-27 09:31N 64°45' E 011°01'1010.0
2016-Nov-27 08:33N 64°52' E 011°17'10 9.9
2016-Nov-27 07:33N 64°58' E 011°34'9 9.5
2016-Nov-27 06:33N 65°06' E 011°48'10 9.7
2016-Nov-27 05:33N 65°15' E 011°56'5251.9
2016-Nov-27 04:33N 66°01' E 012°56'6 6.3
2016-Nov-27 03:32N 66°02' E 012°41'6 6.2
2016-Nov-27 02:33N 66°07' E 012°46'32 8.1
2016-Nov-26 22:32N 66°39' E 013°07'7 7.4
2016-Nov-26 21:32N 66°46' E 013°13'7 7.1
2016-Nov-26 20:33N 66°52' E 013°21'7 6.6
2016-Nov-26 19:33N 66°58' E 013°30'7 7.0
2016-Nov-26 18:34N 67°01' E 013°45'20 6.7
2016-Nov-26 15:33N 67°18' E 014°16'5 3.9
2016-Nov-26 14:19N 67°22' E 014°23'5 6.5
2016-Nov-26 13:33N 67°26' E 014°27'6 6.2
2016-Nov-26 12:32N 67°32' E 014°30'8 6.3
2016-Nov-26 11:17N 67°40' E 014°31'4 6.0
2016-Nov-26 10:33N 67°45' E 014°31'7 5.7
2016-Nov-26 09:15N 67°51' E 014°41'13 7.7
2016-Nov-26 07:32N 68°04' E 014°48'6 6.6
2016-Nov-26 06:33N 68°11' E 014°50'3 3.3
2016-Nov-26 05:33N 68°14' E 014°51'0 0.1
2016-Nov-26 04:33N 68°14' E 014°51'0 0.0
2016-Nov-26 03:33N 68°14' E 014°51'0 0.2
2016-Nov-26 02:33N 68°14' E 014°51'7 5.1
2016-Nov-26 01:10N 68°13' E 015°10'3 5.5
2016-Nov-26 00:33N 68°13' E 015°19'6 5.6
2016-Nov-25 23:33N 68°14' E 015°34'6 6.2
2016-Nov-25 22:33N 68°15' E 015°50'6 5.6
2016-Nov-25 21:32N 68°15' E 016°05'7 6.7
2016-Nov-25 20:33N 68°09' E 016°10'11 9.8
2016-Nov-25 19:24N 67°58' E 016°14'4 4.9
2016-Nov-25 18:33N 67°54' E 016°14'1 0.7
2016-Nov-25 17:33N 67°54' E 016°13'8 6.0
2016-Nov-25 16:12N 68°02' E 016°12'7645.0
2016-Nov-25 14:30N 67°06' E 013°57'9 9.9
2016-Nov-25 13:33N 67°14' E 014°09'1010.1
2016-Nov-25 12:33N 67°22' E 014°24'20 9.4
2016-Nov-25 10:23N 67°42' E 014°31'12 0.5
2016-Nov-24 12:24N 67°31' E 014°29'910.9
2016-Nov-24 11:33N 67°22' E 014°24'1111.0
2016-Nov-24 10:33N 67°13' E 014°08'6 5.6
2016-Nov-24 09:33N 67°08' E 013°59'0 0.3
2016-Nov-24 08:33N 67°08' E 013°58'4 3.6
2016-Nov-24 07:29N 67°04' E 013°57'2 1.8
2016-Nov-24 06:33N 67°04' E 013°53'8 8.2
2016-Nov-24 05:33N 66°59' E 013°35'30 7.4
2016-Nov-24 01:32N 66°33' E 013°00'7 7.1
2016-Nov-24 00:33N 66°27' E 012°49'9 8.7
2016-Nov-23 23:33N 66°24' E 012°29'3 3.3
2016-Nov-23 22:33N 66°22' E 012°23'0 0.0
2016-Nov-23 21:33N 66°22' E 012°23'0 0.0
2016-Nov-23 20:33N 66°22' E 012°23'0 0.0
2016-Nov-23 19:33N 66°22' E 012°23'0 0.0
2016-Nov-23 18:33N 66°22' E 012°23'0 0.0
2016-Nov-23 17:33N 66°22' E 012°23'0 0.0
2016-Nov-23 16:33N 66°22' E 012°23'0 0.1
2016-Nov-23 15:33N 66°22' E 012°23'  

Dump ship's entire track history